createdAt,value
2023-01-21T00:01:11.376Z,18.73
2023-01-21T00:03:39.658Z,19.20
2023-01-21T00:06:09.363Z,17.90
2023-01-21T00:08:37.216Z,18.23
2023-01-21T00:11:08.823Z,18.73
2023-01-21T00:13:37.431Z,17.43
2023-01-21T00:16:06.355Z,19.20
2023-01-21T00:18:34.961Z,17.77
2023-01-21T00:21:03.351Z,18.43
2023-01-21T00:23:32.664Z,19.20
2023-01-21T00:26:00.890Z,19.67
2023-01-21T00:28:33.280Z,19.73
2023-01-21T00:31:03.024Z,19.57
2023-01-21T00:33:32.043Z,19.23
2023-01-21T00:36:01.736Z,19.33
2023-01-21T00:38:30.662Z,20.43
2023-01-21T00:41:04.784Z,19.70
2023-01-21T00:43:33.356Z,21.40
2023-01-21T00:46:01.395Z,20.03
2023-01-21T00:48:29.641Z,19.70
2023-01-21T00:51:01.075Z,20.10
2023-01-21T00:53:29.545Z,18.77
2023-01-21T00:56:00.260Z,19.57
2023-01-21T00:58:33.466Z,18.93
2023-01-21T01:01:02.799Z,19.20
2023-01-21T01:03:30.863Z,19.73
2023-01-21T01:06:04.142Z,19.67
2023-01-21T01:08:32.074Z,18.90
2023-01-21T01:11:00.189Z,18.47
2023-01-21T01:13:29.858Z,19.27
2023-01-21T01:16:02.657Z,19.70
2023-01-21T01:18:32.692Z,18.97
2023-01-21T01:21:01.569Z,20.57
2023-01-21T01:23:29.436Z,18.73
2023-01-21T01:25:59.595Z,19.00
2023-01-21T01:28:28.259Z,18.07
2023-01-21T01:30:56.989Z,17.37
2023-01-21T01:33:26.773Z,18.43
2023-01-21T01:35:54.931Z,18.00
2023-01-21T01:38:24.063Z,18.13
2023-01-21T01:40:54.072Z,17.90
2023-01-21T01:43:24.240Z,18.43
2023-01-21T01:45:53.786Z,17.97
2023-01-21T01:48:29.022Z,19.00
2023-01-21T01:51:01.191Z,18.50
2023-01-21T01:53:31.322Z,17.30
2023-01-21T01:55:59.985Z,18.13
2023-01-21T01:58:30.156Z,18.67
2023-01-21T02:00:58.213Z,19.03
2023-01-21T02:03:46.218Z,19.50
2023-01-21T02:06:15.480Z,19.43
2023-01-21T02:08:44.251Z,18.67
2023-01-21T02:11:13.152Z,18.23
2023-01-21T02:13:43.994Z,18.87
2023-01-21T02:16:41.890Z,18.50
2023-01-21T02:19:41.562Z,19.23
2023-01-21T02:22:17.427Z,18.63
2023-01-21T02:25:26.950Z,18.17
2023-01-21T02:28:13.648Z,18.33
2023-01-21T02:30:50.114Z,18.60
2023-01-21T02:33:56.266Z,17.93
2023-01-21T02:36:47.653Z,18.97
2023-01-21T02:39:22.990Z,18.20
2023-01-21T02:42:07.377Z,19.10
2023-01-21T02:44:41.371Z,18.20
2023-01-21T02:47:18.867Z,17.93
2023-01-21T02:49:51.943Z,19.07
2023-01-21T02:52:23.286Z,17.47
2023-01-21T02:54:54.166Z,17.77
2023-01-21T02:57:39.204Z,18.43
2023-01-21T03:00:12.613Z,17.67
2023-01-21T03:03:11.735Z,19.00
2023-01-21T03:05:57.156Z,18.53
2023-01-21T03:08:31.794Z,20.27
2023-01-21T03:11:10.465Z,18.67
2023-01-21T03:14:02.447Z,19.20
2023-01-21T03:16:52.742Z,18.50
2023-01-21T03:19:24.519Z,18.97
2023-01-21T03:21:54.853Z,19.47
2023-01-21T03:24:24.512Z,19.47
2023-01-21T03:26:55.570Z,18.27
2023-01-21T03:29:27.768Z,18.70
2023-01-21T03:31:59.858Z,20.10
2023-01-21T03:34:30.875Z,18.97
2023-01-21T03:37:03.518Z,21.43
2023-01-21T03:39:41.776Z,20.00
2023-01-21T03:42:10.601Z,21.83
2023-01-21T03:44:39.114Z,21.67
2023-01-21T03:47:18.153Z,21.53
2023-01-21T03:49:52.508Z,22.60
2023-01-21T03:52:22.991Z,22.40
2023-01-21T03:54:52.715Z,22.47
2023-01-21T03:57:20.721Z,21.17
2023-01-21T03:59:48.571Z,22.40
2023-01-21T04:02:20.480Z,20.87
2023-01-21T04:04:49.008Z,22.50
2023-01-21T04:07:17.585Z,23.23
2023-01-21T04:09:45.709Z,23.53
2023-01-21T04:12:15.010Z,22.57
2023-01-21T04:14:42.846Z,21.87
2023-01-21T04:17:10.974Z,22.17
2023-01-21T04:19:38.934Z,24.17
2023-01-21T04:22:06.790Z,25.40
2023-01-21T04:24:34.891Z,23.13
2023-01-21T04:27:02.812Z,23.00
2023-01-21T04:29:32.028Z,21.80
2023-01-21T04:31:59.881Z,22.90
2023-01-21T04:34:27.768Z,23.93
2023-01-21T04:36:55.606Z,24.40
2023-01-21T04:39:23.572Z,24.67
2023-01-21T04:41:51.596Z,25.97
2023-01-21T04:44:19.399Z,24.57
2023-01-21T04:46:48.641Z,25.30
2023-01-21T04:49:16.616Z,24.93
2023-01-21T04:51:44.450Z,24.77
2023-01-21T04:54:12.584Z,24.87
2023-01-21T04:56:40.493Z,27.13
2023-01-21T04:59:08.368Z,26.80
2023-01-21T05:01:36.277Z,28.30
2023-01-21T05:04:06.025Z,27.87
2023-01-21T05:06:33.857Z,28.83
2023-01-21T05:09:01.768Z,28.00
2023-01-21T05:11:29.781Z,28.33
2023-01-21T05:13:57.588Z,28.83
2023-01-21T05:16:25.477Z,27.73
2023-01-21T05:18:53.455Z,28.83
2023-01-21T05:21:22.712Z,28.83
2023-01-21T05:23:50.555Z,27.63
2023-01-21T05:26:19.548Z,25.17
2023-01-21T05:28:47.430Z,25.57
2023-01-21T05:31:15.350Z,27.43
2023-01-21T05:33:44.079Z,24.60
2023-01-21T05:36:12.062Z,25.63
2023-01-21T05:38:41.489Z,24.83
2023-01-21T05:41:09.666Z,27.27
2023-01-21T05:43:37.513Z,27.40
2023-01-21T05:46:05.375Z,27.70
2023-01-21T05:48:33.354Z,27.63
2023-01-21T05:51:01.286Z,27.07
2023-01-21T05:53:29.339Z,29.90
2023-01-21T05:55:59.112Z,26.83
2023-01-21T05:58:27.674Z,26.57
2023-01-21T06:00:57.450Z,28.20
2023-01-21T06:03:26.203Z,27.63
2023-01-21T06:05:54.239Z,28.10
2023-01-21T06:08:23.326Z,29.07
2023-01-21T06:10:51.133Z,30.30
2023-01-21T06:13:20.341Z,27.90
2023-01-21T06:15:48.238Z,29.70
2023-01-21T06:18:16.088Z,28.30
2023-01-21T06:20:43.932Z,28.17
2023-01-21T06:23:12.210Z,28.90
2023-01-21T06:25:40.856Z,27.87
2023-01-21T06:28:09.952Z,30.40
2023-01-21T06:30:39.693Z,27.90
2023-01-21T06:33:07.541Z,27.10
2023-01-21T06:35:35.920Z,28.43
2023-01-21T06:38:04.167Z,27.10
2023-01-21T06:40:32.110Z,26.97
2023-01-21T06:42:59.944Z,26.70
2023-01-21T06:45:28.417Z,28.00
2023-01-21T06:47:57.778Z,29.10
2023-01-21T06:50:25.631Z,29.03
2023-01-21T06:52:53.648Z,25.20
2023-01-21T06:55:21.471Z,27.83
2023-01-21T06:57:49.252Z,25.67
2023-01-21T07:00:18.658Z,25.47
2023-01-21T07:02:46.831Z,27.57
2023-01-21T07:05:16.608Z,24.90
2023-01-21T07:07:44.700Z,26.93
2023-01-21T07:10:12.928Z,26.07
2023-01-21T07:12:40.773Z,27.93
2023-01-21T07:15:09.983Z,26.50
2023-01-21T07:17:37.859Z,26.10
2023-01-21T07:20:06.802Z,26.57
2023-01-21T07:22:36.375Z,26.87
2023-01-21T07:25:04.243Z,26.00
2023-01-21T07:27:32.178Z,26.23
2023-01-21T07:30:00.049Z,26.23
2023-01-21T07:32:27.891Z,27.93
2023-01-21T07:34:55.800Z,27.30
2023-01-21T07:37:23.672Z,27.73
2023-01-21T07:39:54.611Z,28.40
2023-01-21T07:42:22.740Z,26.43
2023-01-21T07:44:50.677Z,27.13
2023-01-21T07:47:18.526Z,26.87
2023-01-21T07:49:46.367Z,28.03
2023-01-21T07:52:14.257Z,27.00
2023-01-21T07:54:42.143Z,26.57
2023-01-21T07:57:11.354Z,28.23
2023-01-21T07:59:39.397Z,27.27
2023-01-21T08:02:07.564Z,28.43
2023-01-21T08:04:35.482Z,30.27
2023-01-21T08:07:11.924Z,27.20
2023-01-21T08:09:41.028Z,26.43
2023-01-21T08:12:09.952Z,28.53
2023-01-21T08:14:39.686Z,29.97
2023-01-21T08:17:07.589Z,27.60
2023-01-21T08:19:35.476Z,27.87
2023-01-21T08:22:03.568Z,28.10
2023-01-21T08:24:31.426Z,27.03
2023-01-21T08:27:00.108Z,27.20
2023-01-21T08:29:28.439Z,27.77
2023-01-21T08:31:59.283Z,27.00
2023-01-21T08:34:27.685Z,26.10
2023-01-21T08:36:55.531Z,26.63
2023-01-21T08:39:23.356Z,26.43
2023-01-21T08:41:51.289Z,26.37
2023-01-21T08:44:19.172Z,27.00
2023-01-21T08:46:46.996Z,28.37
2023-01-21T08:49:16.286Z,26.60
2023-01-21T08:51:44.289Z,26.43
2023-01-21T08:54:12.112Z,26.67
2023-01-21T08:56:40.126Z,26.67
2023-01-21T08:59:08.123Z,25.50
2023-01-21T09:01:36.690Z,26.47
2023-01-21T09:04:04.766Z,26.10
2023-01-21T09:06:34.852Z,27.50
2023-01-21T09:09:02.712Z,28.20
2023-01-21T09:11:30.911Z,27.37
2023-01-21T09:14:03.375Z,28.10
2023-01-21T09:16:36.429Z,27.17
2023-01-21T09:19:04.704Z,27.13
2023-01-21T09:21:35.821Z,28.27
2023-01-21T09:24:03.904Z,27.67
2023-01-21T09:26:31.799Z,26.60
2023-01-21T09:29:02.080Z,28.33
2023-01-21T09:31:31.734Z,26.50
2023-01-21T09:34:02.233Z,26.37
2023-01-21T09:36:32.764Z,26.07
2023-01-21T09:39:02.695Z,24.90
2023-01-21T09:41:36.431Z,26.53
2023-01-21T09:44:15.769Z,24.77
2023-01-21T09:46:49.930Z,25.47
2023-01-21T09:49:23.844Z,25.30
2023-01-21T09:51:59.606Z,24.80
2023-01-21T09:54:32.162Z,25.87
2023-01-21T09:57:38.690Z,24.30
2023-01-21T10:00:30.248Z,25.73
2023-01-21T10:03:04.538Z,25.07
2023-01-21T10:06:04.042Z,24.03
2023-01-21T10:08:41.271Z,24.87
2023-01-21T10:11:23.551Z,24.57
2023-01-21T10:14:21.641Z,24.23
2023-01-21T10:17:03.023Z,24.57
2023-01-21T10:19:37.626Z,22.93
2023-01-21T10:22:10.818Z,24.73
2023-01-21T10:24:45.352Z,23.13
2023-01-21T10:27:17.800Z,25.50
2023-01-21T10:29:47.513Z,23.37
2023-01-21T10:32:18.814Z,22.57
2023-01-21T10:34:51.854Z,23.07
2023-01-21T10:37:26.939Z,22.07
2023-01-21T10:40:04.492Z,21.23
2023-01-21T10:42:55.059Z,21.63
2023-01-21T10:45:37.170Z,21.87
2023-01-21T10:48:12.370Z,21.43
2023-01-21T10:50:49.440Z,21.23
2023-01-21T10:53:24.824Z,21.17
2023-01-21T10:56:07.597Z,20.93
2023-01-21T10:58:42.337Z,20.53
2023-01-21T11:01:19.335Z,20.40
2023-01-21T11:03:49.342Z,19.43
2023-01-21T11:06:20.059Z,19.17
2023-01-21T11:08:52.466Z,17.20
2023-01-21T11:11:27.822Z,18.03
2023-01-21T11:13:57.708Z,17.33
2023-01-21T11:16:46.910Z,18.40
2023-01-21T11:19:16.944Z,17.77
2023-01-21T11:22:04.081Z,17.53
2023-01-21T11:24:33.584Z,16.93
2023-01-21T11:27:02.326Z,16.37
2023-01-21T11:29:42.139Z,16.43
2023-01-21T11:32:19.012Z,15.27
2023-01-21T11:34:48.915Z,14.63
2023-01-21T11:37:25.654Z,14.93
2023-01-21T11:39:56.976Z,15.13
2023-01-21T11:42:25.267Z,14.67
2023-01-21T11:44:58.067Z,14.00
2023-01-21T11:47:30.854Z,13.97
2023-01-21T11:50:13.920Z,14.13
2023-01-21T11:52:41.802Z,13.43
2023-01-21T11:55:22.111Z,14.37
2023-01-21T11:57:53.453Z,13.93
2023-01-21T12:00:25.646Z,14.37
2023-01-21T12:02:58.202Z,15.57
2023-01-21T12:05:32.600Z,13.93
2023-01-21T12:08:01.516Z,14.73
2023-01-21T12:10:32.996Z,14.70
2023-01-21T12:13:25.408Z,15.10
2023-01-21T12:16:28.880Z,14.77
2023-01-21T12:19:16.541Z,15.43
2023-01-21T12:21:57.439Z,14.90
2023-01-21T12:24:38.854Z,15.40
2023-01-21T12:27:22.234Z,15.33
2023-01-21T12:30:02.110Z,16.73
2023-01-21T12:32:35.005Z,15.60
2023-01-21T12:35:10.522Z,15.93
2023-01-21T12:37:46.958Z,16.87
2023-01-21T12:40:19.177Z,15.87
2023-01-21T12:42:53.007Z,14.97
2023-01-21T12:45:25.297Z,16.00
2023-01-21T12:47:57.567Z,15.33
2023-01-21T12:50:32.196Z,15.80
2023-01-21T12:53:17.652Z,17.33
2023-01-21T12:55:59.887Z,16.50
2023-01-21T12:58:32.251Z,14.83
2023-01-21T13:01:05.706Z,15.43
2023-01-21T13:03:43.147Z,15.33
2023-01-21T13:06:19.029Z,16.13
2023-01-21T13:08:56.646Z,15.43
2023-01-21T13:11:28.637Z,16.97
2023-01-21T13:14:04.567Z,18.17
2023-01-21T13:16:34.201Z,15.20
2023-01-21T13:19:04.306Z,15.50
2023-01-21T13:21:43.270Z,14.47
2023-01-21T13:24:17.650Z,15.70
2023-01-21T13:26:55.038Z,14.07
2023-01-21T13:29:40.211Z,14.07
2023-01-21T13:32:32.429Z,14.03
2023-01-21T13:35:14.022Z,13.83
2023-01-21T13:37:49.463Z,13.67
2023-01-21T13:40:26.902Z,13.80
2023-01-21T13:43:05.871Z,15.03
2023-01-21T13:45:46.640Z,12.83
2023-01-21T13:48:29.473Z,11.90
2023-01-21T13:51:12.426Z,11.47
2023-01-21T13:53:56.732Z,11.20
2023-01-21T13:56:39.975Z,13.40
2023-01-21T13:59:13.772Z,11.60
2023-01-21T14:01:46.814Z,10.93
2023-01-21T14:04:21.036Z,12.20
2023-01-21T14:06:54.745Z,11.50
2023-01-21T14:09:28.806Z,11.90
2023-01-21T14:12:03.011Z,11.30
2023-01-21T14:15:06.315Z,11.57
2023-01-21T14:18:00.333Z,11.23
2023-01-21T14:20:53.134Z,11.87
2023-01-21T14:23:37.222Z,11.53
2023-01-21T14:26:32.797Z,11.90
2023-01-21T14:29:10.088Z,11.47
2023-01-21T14:31:43.374Z,11.03
2023-01-21T14:34:19.175Z,11.73
2023-01-21T14:36:56.115Z,10.77
2023-01-21T14:39:55.560Z,10.77
2023-01-21T14:42:41.845Z,10.43
2023-01-21T14:45:10.819Z,8.57
2023-01-21T14:47:44.719Z,8.97
2023-01-21T14:50:35.226Z,8.77
2023-01-21T14:53:12.041Z,8.37
2023-01-21T14:55:42.473Z,9.30
2023-01-21T14:58:23.959Z,9.23
2023-01-21T15:00:53.811Z,8.60
2023-01-21T15:03:27.629Z,8.60
2023-01-21T15:05:59.516Z,8.00
2023-01-21T15:08:33.398Z,8.27
2023-01-21T15:11:04.583Z,8.70
2023-01-21T15:13:38.799Z,8.40
2023-01-21T15:16:15.349Z,7.97
2023-01-21T15:18:48.616Z,8.23
2023-01-21T15:21:36.276Z,7.50
2023-01-21T15:24:26.327Z,8.10
2023-01-21T15:27:15.051Z,7.30
2023-01-21T15:29:45.707Z,6.80
2023-01-21T15:32:22.821Z,6.20
2023-01-21T15:34:54.234Z,5.80
2023-01-21T15:37:24.684Z,5.40
2023-01-21T15:39:57.687Z,5.43
2023-01-21T15:42:36.858Z,5.47
2023-01-21T15:45:23.795Z,5.47
2023-01-21T15:48:41.585Z,5.60
2023-01-21T15:51:24.037Z,5.40
2023-01-21T15:54:21.664Z,5.53
2023-01-21T15:57:01.120Z,6.30
2023-01-21T15:59:45.901Z,5.60
2023-01-21T16:02:23.572Z,6.20
2023-01-21T16:05:05.250Z,5.57
2023-01-21T16:07:47.333Z,5.80
2023-01-21T16:10:23.947Z,6.00
2023-01-21T16:13:07.022Z,6.67
2023-01-21T16:15:45.551Z,5.97
2023-01-21T16:18:28.375Z,6.40
2023-01-21T16:20:58.949Z,6.27
2023-01-21T16:23:32.661Z,6.30
2023-01-21T16:26:00.786Z,7.07
2023-01-21T16:28:41.563Z,6.87
2023-01-21T16:31:09.582Z,6.23
2023-01-21T16:33:39.082Z,6.20
2023-01-21T16:36:09.316Z,6.40
2023-01-21T16:38:38.882Z,6.70
2023-01-21T16:41:25.890Z,6.43
2023-01-21T16:43:56.785Z,7.10
2023-01-21T16:46:28.349Z,6.13
2023-01-21T16:48:59.481Z,6.17
2023-01-21T16:51:30.879Z,7.13
2023-01-21T16:54:25.041Z,6.67
2023-01-21T16:56:55.816Z,7.90
2023-01-21T16:59:27.725Z,7.27
2023-01-21T17:01:57.009Z,8.20
2023-01-21T17:04:26.375Z,7.80
2023-01-21T17:06:54.840Z,7.60
2023-01-21T17:09:33.437Z,7.27
2023-01-21T17:12:07.460Z,6.97
2023-01-21T17:14:36.577Z,6.80
2023-01-21T17:17:09.056Z,7.47
2023-01-21T17:19:43.691Z,7.17
2023-01-21T17:22:15.519Z,6.27
2023-01-21T17:25:00.399Z,7.03
2023-01-21T17:27:29.826Z,6.93
2023-01-21T17:30:19.688Z,6.90
2023-01-21T17:32:54.713Z,6.60
2023-01-21T17:35:25.684Z,7.10
2023-01-21T17:37:55.852Z,7.40
2023-01-21T17:40:29.201Z,8.20
2023-01-21T17:42:58.974Z,8.23
2023-01-21T17:45:32.364Z,8.63
2023-01-21T17:48:09.491Z,8.50
2023-01-21T17:50:46.502Z,8.43
2023-01-21T17:53:21.687Z,8.07
2023-01-21T17:55:57.674Z,8.07
2023-01-21T17:58:45.999Z,8.30
2023-01-21T18:01:14.605Z,7.23
2023-01-21T18:03:43.148Z,8.93
2023-01-21T18:06:19.093Z,8.53
2023-01-21T18:08:46.946Z,8.80
2023-01-21T18:11:16.795Z,8.47
2023-01-21T18:13:44.768Z,8.43
2023-01-21T18:16:12.664Z,8.60
2023-01-21T18:18:41.291Z,8.20
2023-01-21T18:21:20.934Z,8.37
2023-01-21T18:23:49.677Z,8.30
2023-01-21T18:26:24.122Z,8.70
2023-01-21T18:28:51.971Z,8.40
2023-01-21T18:31:19.914Z,7.67
2023-01-21T18:33:47.922Z,8.40
2023-01-21T18:36:15.799Z,9.27
2023-01-21T18:38:45.374Z,8.33
2023-01-21T18:41:13.568Z,9.07
2023-01-21T18:43:41.943Z,9.00
2023-01-21T18:46:12.793Z,8.60
2023-01-21T18:48:40.790Z,8.90
2023-01-21T18:51:09.776Z,8.37
2023-01-21T18:53:37.804Z,7.30
2023-01-21T18:56:11.063Z,8.43
2023-01-21T18:58:38.933Z,7.57
2023-01-21T19:01:21.417Z,7.83
2023-01-21T19:03:51.761Z,7.90
2023-01-21T19:06:19.806Z,7.97
2023-01-21T19:08:48.684Z,7.90
2023-01-21T19:11:18.123Z,8.20
2023-01-21T19:13:46.009Z,8.10
2023-01-21T19:16:16.852Z,8.13
2023-01-21T19:18:45.277Z,7.13
2023-01-21T19:21:13.136Z,7.67
2023-01-21T19:23:41.353Z,7.77
2023-01-21T19:26:13.797Z,7.27
2023-01-21T19:28:43.498Z,6.93
2023-01-21T19:31:11.370Z,6.90
2023-01-21T19:33:41.949Z,7.37
2023-01-21T19:36:15.887Z,7.00
2023-01-21T19:38:44.583Z,7.80
2023-01-21T19:41:12.420Z,7.50
2023-01-21T19:43:41.243Z,7.53
2023-01-21T19:46:13.162Z,7.70
2023-01-21T19:48:41.962Z,6.97
2023-01-21T19:51:10.074Z,7.60
2023-01-21T19:53:38.046Z,7.77
2023-01-21T19:56:06.789Z,8.47
2023-01-21T19:58:35.728Z,8.17
2023-01-21T20:01:03.758Z,7.87
2023-01-21T20:03:33.056Z,8.40
2023-01-21T20:06:03.169Z,8.60
2023-01-21T20:08:32.114Z,8.57
2023-01-21T20:10:59.998Z,8.90
2023-01-21T20:13:31.375Z,9.17
2023-01-21T20:16:03.721Z,9.13
2023-01-21T20:18:33.612Z,9.30
2023-01-21T20:21:01.549Z,9.23
2023-01-21T20:23:32.721Z,9.07
2023-01-21T20:26:01.175Z,9.67
2023-01-21T20:28:37.119Z,9.70
2023-01-21T20:31:07.187Z,9.73
2023-01-21T20:33:37.011Z,9.80
2023-01-21T20:36:07.570Z,10.00
2023-01-21T20:38:38.360Z,9.67
2023-01-21T20:41:07.202Z,9.13
2023-01-21T20:43:35.788Z,9.67
2023-01-21T20:46:06.966Z,10.50
2023-01-21T20:48:39.962Z,9.83
2023-01-21T20:51:08.171Z,9.80
2023-01-21T20:53:36.296Z,9.27
2023-01-21T20:56:22.700Z,9.20
2023-01-21T20:58:50.952Z,9.40
2023-01-21T21:01:21.380Z,8.50
2023-01-21T21:03:51.023Z,8.70
2023-01-21T21:06:21.127Z,7.97
2023-01-21T21:08:50.054Z,8.20
2023-01-21T21:11:19.234Z,8.13
2023-01-21T21:13:50.543Z,8.27
2023-01-21T21:16:20.998Z,8.60
2023-01-21T21:18:50.982Z,8.00
2023-01-21T21:21:21.085Z,7.80
2023-01-21T21:23:52.158Z,7.40
2023-01-21T21:26:23.034Z,8.43
2023-01-21T21:28:52.094Z,7.57
2023-01-21T21:31:20.138Z,7.20
2023-01-21T21:33:48.053Z,7.30
2023-01-21T21:36:19.430Z,7.53
2023-01-21T21:38:48.970Z,6.37
2023-01-21T21:41:35.763Z,6.27
2023-01-21T21:44:03.957Z,6.37
2023-01-21T21:46:49.870Z,6.13
2023-01-21T21:49:18.091Z,7.10
2023-01-21T21:52:00.322Z,6.87
2023-01-21T21:54:28.556Z,6.90
2023-01-21T21:56:56.915Z,7.50
2023-01-21T21:59:24.872Z,6.10
2023-01-21T22:01:52.865Z,5.93
2023-01-21T22:04:21.350Z,6.13
2023-01-21T22:06:50.859Z,6.20
2023-01-21T22:09:18.868Z,6.07
2023-01-21T22:11:46.841Z,5.90
2023-01-21T22:14:15.030Z,5.97
2023-01-21T22:16:43.334Z,5.53
2023-01-21T22:19:12.341Z,5.60
2023-01-21T22:21:40.247Z,6.03
2023-01-21T22:24:11.147Z,5.60
2023-01-21T22:26:39.301Z,5.57
2023-01-21T22:29:07.179Z,6.10
2023-01-21T22:31:35.765Z,5.50
2023-01-21T22:34:04.430Z,6.17
2023-01-21T22:36:34.060Z,5.77
2023-01-21T22:39:02.279Z,6.07
2023-01-21T22:41:31.762Z,5.90
2023-01-21T22:43:59.622Z,5.73
2023-01-21T22:46:30.059Z,6.40
2023-01-21T22:48:58.451Z,5.90
2023-01-21T22:51:26.955Z,5.60
2023-01-21T22:53:55.224Z,5.03
2023-01-21T22:56:44.956Z,5.30
2023-01-21T22:59:14.317Z,5.33
2023-01-21T23:01:42.740Z,5.17
2023-01-21T23:04:10.844Z,5.23
2023-01-21T23:06:38.931Z,5.33
2023-01-21T23:09:09.516Z,5.90
2023-01-21T23:11:39.568Z,5.30
2023-01-21T23:14:09.919Z,5.77
2023-01-21T23:16:39.698Z,5.60
2023-01-21T23:19:07.524Z,5.37
2023-01-21T23:21:37.596Z,5.43
2023-01-21T23:24:05.812Z,5.23
2023-01-21T23:26:33.797Z,5.40
2023-01-21T23:29:01.868Z,5.57
2023-01-21T23:31:29.972Z,5.87
2023-01-21T23:34:00.111Z,5.37
2023-01-21T23:36:27.942Z,5.20
2023-01-21T23:38:55.936Z,5.27
2023-01-21T23:41:23.986Z,5.33
2023-01-21T23:43:51.897Z,5.30
2023-01-21T23:46:20.696Z,5.30
2023-01-21T23:48:49.313Z,5.20
2023-01-21T23:51:19.600Z,5.40
2023-01-21T23:53:49.078Z,5.47
2023-01-21T23:56:20.375Z,5.80
2023-01-21T23:58:51.016Z,5.73
